createdAt,value
2023-02-19T00:10:24.497Z,345
2023-02-19T00:30:24.532Z,345
2023-02-19T00:50:24.553Z,346
2023-02-19T01:10:24.561Z,343
2023-02-19T01:30:24.768Z,344
2023-02-19T01:50:24.610Z,342
2023-02-19T02:10:24.647Z,341
2023-02-19T02:30:24.725Z,340
2023-02-19T02:50:24.773Z,340
2023-02-19T03:10:24.745Z,337
2023-02-19T03:50:24.831Z,340
2023-02-19T04:10:24.846Z,340
2023-02-19T04:30:24.911Z,341
2023-02-19T04:50:24.927Z,345
2023-02-19T05:10:24.935Z,348
2023-02-19T05:30:25.053Z,360
2023-02-19T05:50:25.036Z,368
2023-02-19T06:10:25.048Z,372
2023-02-19T06:30:25.084Z,372
2023-02-19T06:50:25.141Z,372
2023-02-19T07:10:25.148Z,371
2023-02-19T07:30:25.289Z,371
2023-02-19T07:50:25.229Z,372
2023-02-19T08:10:25.242Z,371
2023-02-19T08:30:25.420Z,372
2023-02-19T08:50:25.309Z,372
2023-02-19T09:10:25.374Z,373
2023-02-19T09:30:25.445Z,376
2023-02-19T09:50:25.337Z,375
2023-02-19T10:10:25.474Z,368
2023-02-19T10:30:25.553Z,366
2023-02-19T10:50:25.528Z,370
2023-02-19T11:10:25.556Z,374
2023-02-19T11:30:25.705Z,389
2023-02-19T11:50:25.627Z,392
2023-02-19T12:10:25.644Z,391
2023-02-19T12:30:25.721Z,394
2023-02-19T12:50:25.732Z,392
2023-02-19T13:10:25.764Z,394
2023-02-19T13:50:25.833Z,384
2023-02-19T14:10:25.867Z,387
2023-02-19T14:30:25.954Z,385
2023-02-19T14:50:25.908Z,384
2023-02-19T15:10:25.940Z,379
2023-02-19T15:30:26.065Z,380
2023-02-19T15:50:26.027Z,378
2023-02-19T16:10:26.050Z,374
2023-02-19T16:30:26.046Z,376
2023-02-19T16:50:26.120Z,375
2023-02-19T17:10:26.163Z,373
2023-02-19T17:30:26.261Z,375
2023-02-19T17:50:26.243Z,374
2023-02-19T18:10:26.248Z,372
2023-02-19T18:30:26.376Z,371
2023-02-19T18:50:26.335Z,370
2023-02-19T19:10:26.362Z,367
2023-02-19T19:30:26.475Z,366
2023-02-19T19:50:26.551Z,365
2023-02-19T20:10:26.501Z,365
2023-02-19T20:30:26.461Z,365
2023-02-19T20:50:26.546Z,362
2023-02-19T21:10:26.626Z,359
2023-02-19T21:30:26.676Z,355
2023-02-19T21:50:26.576Z,355
2023-02-19T22:10:26.715Z,351
2023-02-19T22:30:26.821Z,349
2023-02-19T22:50:26.732Z,349
2023-02-19T23:10:26.819Z,346
2023-02-19T23:30:26.855Z,341
2023-02-19T23:50:26.914Z,339
